createdAt,value
2023-03-08T00:00:21.204Z,61.20
2023-03-08T00:03:24.768Z,62.00
2023-03-08T00:06:29.407Z,61.20
2023-03-08T00:09:34.459Z,62.10
2023-03-08T00:12:38.444Z,61.20
2023-03-08T00:15:41.792Z,61.10
2023-03-08T00:18:45.041Z,61.10
2023-03-08T00:21:48.240Z,61.10
2023-03-08T00:24:55.137Z,61.00
2023-03-08T00:27:58.320Z,61.00
2023-03-08T00:31:04.623Z,61.10
2023-03-08T00:34:08.595Z,60.60
2023-03-08T00:37:12.275Z,60.70
2023-03-08T00:40:17.250Z,60.10
2023-03-08T00:43:21.058Z,60.50
2023-03-08T00:46:25.230Z,60.70
2023-03-08T00:49:29.166Z,61.20
2023-03-08T00:52:32.481Z,60.30
2023-03-08T00:55:37.544Z,61.10
2023-03-08T00:58:42.979Z,61.10
2023-03-08T01:01:46.359Z,61.00
2023-03-08T01:04:49.546Z,60.50
2023-03-08T01:07:52.951Z,60.20
2023-03-08T01:11:01.054Z,60.80
2023-03-08T01:14:06.406Z,60.70
2023-03-08T01:17:09.560Z,59.30
2023-03-08T01:20:14.868Z,60.70
2023-03-08T01:26:25.631Z,60.20
2023-03-08T01:29:29.131Z,60.70
2023-03-08T01:38:42.433Z,60.30
2023-03-08T01:41:48.081Z,60.80
2023-03-08T01:44:54.845Z,59.80
2023-03-08T01:47:58.326Z,60.70
2023-03-08T01:51:04.287Z,60.80
2023-03-08T01:54:14.200Z,60.60
2023-03-08T01:57:23.392Z,59.10
2023-03-08T02:00:27.927Z,60.50
2023-03-08T02:03:32.249Z,60.50
2023-03-08T02:06:35.986Z,59.90
2023-03-08T02:09:39.845Z,60.20
2023-03-08T02:12:46.104Z,60.20
2023-03-08T02:15:54.538Z,60.50
2023-03-08T02:19:02.228Z,60.50
2023-03-08T02:22:11.575Z,61.40
2023-03-08T02:25:20.274Z,61.80
2023-03-08T02:28:27.481Z,60.90
2023-03-08T02:31:30.996Z,60.90
2023-03-08T02:34:35.190Z,62.00
2023-03-08T02:46:50.944Z,61.00
2023-03-08T03:05:15.116Z,64.20
2023-03-08T03:08:18.423Z,61.70
2023-03-08T03:11:25.617Z,61.70
2023-03-08T03:14:29.786Z,62.30
2023-03-08T03:17:33.893Z,62.00
2023-03-08T03:20:37.146Z,62.40
2023-03-08T03:26:46.386Z,62.20
2023-03-08T03:29:50.096Z,63.40
2023-03-08T03:32:53.406Z,62.40
2023-03-08T03:35:56.709Z,62.40
2023-03-08T03:39:00.905Z,62.20
2023-03-08T03:42:07.686Z,62.40
2023-03-08T03:45:12.527Z,62.20
2023-03-08T03:48:17.151Z,61.60
2023-03-08T03:51:24.545Z,62.50
2023-03-08T03:54:28.687Z,62.20
2023-03-08T03:57:33.686Z,61.10
2023-03-08T04:00:37.746Z,61.20
2023-03-08T04:03:40.858Z,60.90
2023-03-08T04:06:44.837Z,60.80
2023-03-08T04:09:48.421Z,60.90
2023-03-08T04:12:55.808Z,60.70
2023-03-08T04:15:58.946Z,60.30
2023-03-08T04:19:05.487Z,59.60
2023-03-08T04:22:08.532Z,61.00
2023-03-08T04:28:18.241Z,60.40
2023-03-08T04:31:25.429Z,60.70
2023-03-08T04:34:29.161Z,60.30
2023-03-08T04:37:32.842Z,60.50
2023-03-08T04:40:58.644Z,60.30
2023-03-08T04:44:03.843Z,61.10
2023-03-08T04:47:07.707Z,61.00
2023-03-08T04:50:12.667Z,60.70
2023-03-08T04:53:15.850Z,60.40
2023-03-08T04:56:19.951Z,60.60
2023-03-08T04:59:24.634Z,60.40
2023-03-08T05:02:28.139Z,60.00
2023-03-08T05:05:31.999Z,59.30
2023-03-08T05:08:35.195Z,61.20
2023-03-08T05:11:38.482Z,60.60
2023-03-08T05:14:43.034Z,60.70
2023-03-08T05:17:46.324Z,60.90
2023-03-08T05:20:56.807Z,60.90
2023-03-08T05:24:00.474Z,60.90
2023-03-08T05:27:05.112Z,61.10
2023-03-08T05:30:11.885Z,61.40
2023-03-08T05:33:15.895Z,61.60
2023-03-08T05:36:21.347Z,61.90
2023-03-08T05:39:24.958Z,61.20
2023-03-08T05:42:32.678Z,61.10
2023-03-08T05:45:37.581Z,60.90
2023-03-08T05:48:41.392Z,60.90
2023-03-08T05:51:44.703Z,60.90
2023-03-08T05:54:49.440Z,61.70
2023-03-08T05:57:52.820Z,61.00
2023-03-08T06:00:58.492Z,60.70
2023-03-08T06:04:02.076Z,60.60
2023-03-08T06:07:05.678Z,60.90
2023-03-08T06:10:10.972Z,61.70
2023-03-08T06:13:14.818Z,61.80
2023-03-08T06:16:19.873Z,61.90
2023-03-08T06:19:23.054Z,61.10
2023-03-08T06:22:26.786Z,60.80
2023-03-08T06:25:30.123Z,60.90
2023-03-08T06:28:33.787Z,60.60
2023-03-08T06:31:39.426Z,60.50
2023-03-08T06:34:44.004Z,60.60
2023-03-08T06:37:47.487Z,59.90
2023-03-08T06:40:51.453Z,60.50
2023-03-08T06:43:54.907Z,60.50
2023-03-08T06:46:59.936Z,60.60
2023-03-08T06:50:03.609Z,60.50
2023-03-08T06:56:16.481Z,60.60
2023-03-08T06:59:19.958Z,61.40
2023-03-08T07:02:24.495Z,61.40
2023-03-08T07:05:28.816Z,61.80
2023-03-08T07:08:32.913Z,62.50
2023-03-08T07:11:36.561Z,63.10
2023-03-08T07:14:40.495Z,63.30
2023-03-08T07:17:46.597Z,63.10
2023-03-08T07:20:53.969Z,62.60
2023-03-08T07:23:57.807Z,61.30
2023-03-08T07:27:01.324Z,61.70
2023-03-08T07:30:05.198Z,58.80
2023-03-08T07:33:13.458Z,60.00
2023-03-08T07:36:17.195Z,57.70
2023-03-08T07:39:23.928Z,57.20
2023-03-08T07:42:28.572Z,58.10
2023-03-08T07:45:33.915Z,56.90
2023-03-08T07:48:39.462Z,56.40
2023-03-08T07:51:42.821Z,57.10
2023-03-08T08:03:59.710Z,56.50
2023-03-08T08:07:05.007Z,56.60
2023-03-08T08:10:10.498Z,56.70
2023-03-08T08:13:13.946Z,57.40
2023-03-08T08:16:18.328Z,56.80
2023-03-08T08:19:22.975Z,56.60
2023-03-08T08:22:26.335Z,55.00
2023-03-08T08:25:29.666Z,56.00
2023-03-08T08:28:33.638Z,56.80
2023-03-08T08:31:38.155Z,54.70
2023-03-08T08:34:42.599Z,54.20
2023-03-08T08:37:46.016Z,53.70
2023-03-08T08:40:50.002Z,54.30
2023-03-08T08:43:53.051Z,53.00
2023-03-08T08:46:56.595Z,53.00
2023-03-08T08:50:01.047Z,53.80
2023-03-08T08:53:04.329Z,52.60
2023-03-08T08:56:27.940Z,52.80
2023-03-08T08:59:31.511Z,51.20
2023-03-08T09:02:34.749Z,52.00
2023-03-08T09:05:43.773Z,52.70
2023-03-08T09:08:47.415Z,51.50
2023-03-08T09:14:59.814Z,50.90
2023-03-08T09:18:03.198Z,50.60
2023-03-08T09:21:08.428Z,51.30
2023-03-08T09:24:13.269Z,51.20
2023-03-08T09:27:16.528Z,50.90
2023-03-08T09:30:21.400Z,50.80
2023-03-08T09:33:25.908Z,50.60
2023-03-08T09:36:31.149Z,50.30
2023-03-08T09:39:34.839Z,49.70
2023-03-08T09:42:39.360Z,49.70
2023-03-08T09:45:43.228Z,47.10
2023-03-08T09:48:52.052Z,49.30
2023-03-08T09:52:07.694Z,48.30
2023-03-08T09:55:28.622Z,48.40
2023-03-08T09:58:39.370Z,48.40
2023-03-08T10:01:54.145Z,48.70
2023-03-08T10:05:13.356Z,48.20
2023-03-08T10:08:24.879Z,47.60
2023-03-08T10:11:38.206Z,47.90
2023-03-08T10:14:49.211Z,47.30
2023-03-08T10:17:57.834Z,47.40
2023-03-08T10:21:03.053Z,47.70
2023-03-08T10:24:20.380Z,46.60
2023-03-08T10:27:27.271Z,45.30
2023-03-08T10:30:37.044Z,46.50
2023-03-08T10:33:40.110Z,45.50
2023-03-08T10:36:55.149Z,46.40
2023-03-08T10:40:06.992Z,44.40
2023-03-08T10:43:26.913Z,45.10
2023-03-08T10:46:33.726Z,44.30
2023-03-08T10:49:36.939Z,45.20
2023-03-08T10:52:40.361Z,45.10
2023-03-08T10:55:49.064Z,45.20
2023-03-08T10:58:58.559Z,44.30
2023-03-08T11:02:16.371Z,42.40
2023-03-08T11:05:24.749Z,43.40
2023-03-08T11:08:33.234Z,41.50
2023-03-08T11:11:43.931Z,42.40
2023-03-08T11:14:48.068Z,40.50
2023-03-08T11:17:56.461Z,42.30
2023-03-08T11:21:10.096Z,41.40
2023-03-08T11:24:44.648Z,42.10
2023-03-08T11:28:21.027Z,41.20
2023-03-08T11:35:03.978Z,40.00
2023-03-08T11:38:17.411Z,41.80
2023-03-08T11:41:30.994Z,38.90
2023-03-08T11:45:05.474Z,39.50
2023-03-08T11:48:53.656Z,40.10
2023-03-08T11:52:07.543Z,38.20
2023-03-08T11:55:43.202Z,39.90
2023-03-08T11:58:53.055Z,38.10
2023-03-08T12:02:03.826Z,39.30
2023-03-08T12:05:18.145Z,39.00
2023-03-08T12:08:28.376Z,37.60
2023-03-08T12:11:39.210Z,39.70
2023-03-08T12:14:52.438Z,39.10
2023-03-08T12:18:06.896Z,38.30
2023-03-08T12:21:26.488Z,37.20
2023-03-08T12:24:48.017Z,39.40
2023-03-08T12:28:05.527Z,39.90
2023-03-08T12:31:27.907Z,38.80
2023-03-08T12:34:41.730Z,37.10
2023-03-08T12:37:55.453Z,37.00
2023-03-08T12:40:59.591Z,38.00
2023-03-08T12:44:06.366Z,39.00
2023-03-08T12:47:23.411Z,33.40
2023-03-08T12:50:29.281Z,35.40
2023-03-08T12:53:42.610Z,35.70
2023-03-08T12:56:56.931Z,38.50
2023-03-08T13:00:06.989Z,36.20
2023-03-08T13:03:30.855Z,37.10
2023-03-08T13:07:26.496Z,34.90
2023-03-08T13:10:33.469Z,35.20
2023-03-08T13:13:52.245Z,36.70
2023-03-08T13:16:56.896Z,36.20
2023-03-08T13:20:08.036Z,37.70
2023-03-08T13:23:29.818Z,34.70
2023-03-08T13:26:56.846Z,35.70
2023-03-08T13:30:25.164Z,35.50
2023-03-08T13:33:34.147Z,36.70
2023-03-08T13:39:54.336Z,35.70
2023-03-08T13:43:02.272Z,36.10
2023-03-08T13:46:17.095Z,37.00
2023-03-08T13:49:26.917Z,37.10
2023-03-08T13:52:35.613Z,35.70
2023-03-08T13:55:46.799Z,36.60
2023-03-08T13:58:52.546Z,36.40
2023-03-08T14:01:57.153Z,37.30
2023-03-08T14:05:00.983Z,37.30
2023-03-08T14:08:07.555Z,36.70
2023-03-08T14:11:20.362Z,36.90
2023-03-08T14:14:32.393Z,36.80
2023-03-08T14:17:37.429Z,36.20
2023-03-08T14:21:29.792Z,37.00
2023-03-08T14:24:38.885Z,35.50
2023-03-08T14:27:47.740Z,37.60
2023-03-08T14:34:01.669Z,37.10
2023-03-08T14:37:13.363Z,37.40
2023-03-08T14:40:27.134Z,35.70
2023-03-08T14:46:46.240Z,35.70
2023-03-08T14:50:18.874Z,37.40
2023-03-08T14:53:31.003Z,36.10
2023-03-08T14:56:38.158Z,36.40
2023-03-08T14:59:48.156Z,37.80
2023-03-08T15:02:52.139Z,37.40
2023-03-08T15:09:19.304Z,37.50
2023-03-08T15:12:23.516Z,38.00
2023-03-08T15:15:28.611Z,38.00
2023-03-08T15:18:33.393Z,35.80
2023-03-08T15:21:40.686Z,37.30
2023-03-08T15:24:44.372Z,37.00
2023-03-08T15:27:49.752Z,37.10
2023-03-08T15:30:55.848Z,36.90
2023-03-08T15:34:02.162Z,36.30
2023-03-08T15:37:06.887Z,35.80
2023-03-08T15:40:16.186Z,37.00
2023-03-08T15:43:19.928Z,36.30
2023-03-08T15:46:24.616Z,36.60
2023-03-08T15:49:27.641Z,36.70
2023-03-08T15:52:31.558Z,36.80
2023-03-08T15:55:35.131Z,37.00
2023-03-08T15:58:39.917Z,37.30
2023-03-08T16:01:44.917Z,36.90
2023-03-08T16:04:49.725Z,36.90
2023-03-08T16:07:56.858Z,36.60
2023-03-08T16:11:04.240Z,35.50
2023-03-08T16:14:07.989Z,36.50
2023-03-08T16:20:20.815Z,35.70
2023-03-08T16:23:28.940Z,36.50
2023-03-08T16:26:32.461Z,36.70
2023-03-08T16:32:43.238Z,36.50
2023-03-08T16:35:51.222Z,37.10
2023-03-08T16:38:56.629Z,36.50
2023-03-08T16:45:06.517Z,36.70
2023-03-08T16:48:12.316Z,39.70
2023-03-08T16:51:19.583Z,39.10
2023-03-08T16:54:25.040Z,39.10
2023-03-08T16:57:33.266Z,39.90
2023-03-08T17:00:37.857Z,39.70
2023-03-08T17:03:45.666Z,39.90
2023-03-08T17:06:49.354Z,40.80
2023-03-08T17:09:53.891Z,39.70
2023-03-08T17:16:03.643Z,41.50
2023-03-08T17:19:11.647Z,41.20
2023-03-08T17:22:15.702Z,41.40
2023-03-08T17:25:19.127Z,41.30
2023-03-08T17:28:23.346Z,41.10
2023-03-08T17:31:26.649Z,41.80
2023-03-08T17:34:31.112Z,41.90
2023-03-08T17:37:42.846Z,42.50
2023-03-08T17:50:04.104Z,43.40
2023-03-08T17:56:20.097Z,44.10
2023-03-08T18:02:27.279Z,44.40
2023-03-08T18:05:32.239Z,44.50
2023-03-08T18:08:37.429Z,45.40
2023-03-08T18:11:41.699Z,45.90
2023-03-08T18:14:47.270Z,45.70
2023-03-08T18:17:51.125Z,46.20
2023-03-08T18:21:12.215Z,46.30
2023-03-08T18:24:18.644Z,46.90
2023-03-08T18:27:22.974Z,46.50
2023-03-08T18:30:26.266Z,46.70
2023-03-08T18:33:29.435Z,47.10
2023-03-08T18:36:35.200Z,46.80
2023-03-08T18:39:38.485Z,46.90
2023-03-08T18:42:44.051Z,46.80
2023-03-08T18:48:58.747Z,46.60
2023-03-08T18:55:12.414Z,46.90
2023-03-08T18:58:15.255Z,47.10
2023-03-08T19:01:18.640Z,47.00
2023-03-08T19:10:31.015Z,47.40
2023-03-08T19:13:35.173Z,47.40
2023-03-08T19:16:40.665Z,47.60
2023-03-08T19:19:43.671Z,47.70
2023-03-08T19:22:48.118Z,47.80
2023-03-08T19:26:04.962Z,47.80
2023-03-08T19:29:14.137Z,47.80
2023-03-08T19:32:18.409Z,48.20
2023-03-08T19:41:35.221Z,47.90
2023-03-08T19:44:41.531Z,47.90
2023-03-08T19:53:55.118Z,48.30
2023-03-08T19:57:02.409Z,48.30
2023-03-08T20:00:39.532Z,48.30
2023-03-08T20:03:42.748Z,48.50
2023-03-08T20:06:48.132Z,48.70
2023-03-08T20:09:55.716Z,48.90
2023-03-08T20:12:59.398Z,49.00
2023-03-08T20:19:06.122Z,49.00
2023-03-08T20:22:09.058Z,49.20
2023-03-08T20:28:19.864Z,48.90
2023-03-08T20:31:28.248Z,48.80
2023-03-08T20:37:35.886Z,49.10
2023-03-08T20:40:40.206Z,48.80
2023-03-08T20:56:12.482Z,48.70
2023-03-08T20:59:16.750Z,48.80
2023-03-08T21:02:19.854Z,49.40
2023-03-08T21:05:23.157Z,49.70
2023-03-08T21:08:26.505Z,50.50
2023-03-08T21:11:33.686Z,50.90
2023-03-08T21:14:37.799Z,51.10
2023-03-08T21:17:40.684Z,51.10
2023-03-08T21:30:32.107Z,52.50
2023-03-08T21:33:35.200Z,52.50
2023-03-08T21:36:40.416Z,51.90
2023-03-08T21:39:43.287Z,52.50
2023-03-08T21:42:49.267Z,52.30
2023-03-08T21:45:52.238Z,53.50
2023-03-08T21:48:56.261Z,53.90
2023-03-08T21:51:59.900Z,54.00
2023-03-08T21:58:10.904Z,54.20
2023-03-08T22:01:24.996Z,55.60
2023-03-08T22:04:29.155Z,54.30
2023-03-08T22:07:34.101Z,55.10
2023-03-08T22:10:37.015Z,55.00
2023-03-08T22:13:42.400Z,56.10
2023-03-08T22:16:45.361Z,56.10
2023-03-08T22:22:52.178Z,55.60
2023-03-08T22:25:56.045Z,55.20
2023-03-08T22:32:05.735Z,55.40
2023-03-08T22:35:30.734Z,55.90
2023-03-08T22:54:05.659Z,56.50
2023-03-08T23:00:16.460Z,56.90
2023-03-08T23:03:19.514Z,56.70
2023-03-08T23:06:22.407Z,57.40
2023-03-08T23:09:26.399Z,56.60
2023-03-08T23:12:34.112Z,58.10
2023-03-08T23:15:38.602Z,57.20
2023-03-08T23:21:45.577Z,56.90
2023-03-08T23:37:06.864Z,56.60
2023-03-08T23:40:14.041Z,57.00
2023-03-08T23:49:25.250Z,57.60
2023-03-08T23:52:28.252Z,57.40
